createdAt,value
2023-03-15T00:01:50.518Z,2.07
2023-03-15T00:04:18.544Z,2.60
2023-03-15T00:06:46.508Z,1.80
2023-03-15T00:09:14.594Z,1.97
2023-03-15T00:11:42.763Z,1.70
2023-03-15T00:14:12.386Z,1.80
2023-03-15T00:16:40.233Z,1.73
2023-03-15T00:19:08.217Z,1.80
2023-03-15T00:21:36.176Z,1.80
2023-03-15T00:24:04.776Z,1.90
2023-03-15T00:26:32.720Z,1.53
2023-03-15T00:29:00.698Z,1.67
2023-03-15T00:31:30.364Z,1.50
2023-03-15T00:33:58.398Z,1.70
2023-03-15T00:36:26.768Z,2.17
2023-03-15T00:38:56.887Z,2.13
2023-03-15T00:41:25.529Z,1.80
2023-03-15T00:43:56.444Z,1.63
2023-03-15T00:46:24.502Z,1.97
2023-03-15T00:48:54.129Z,1.70
2023-03-15T00:51:24.242Z,1.63
2023-03-15T00:53:54.425Z,2.00
2023-03-15T00:56:24.313Z,1.70
2023-03-15T00:58:53.366Z,1.93
2023-03-15T01:01:23.588Z,1.87
2023-03-15T01:03:52.992Z,1.73
2023-03-15T01:06:23.220Z,1.87
2023-03-15T01:08:52.240Z,1.93
2023-03-15T01:11:24.427Z,1.73
2023-03-15T01:13:53.087Z,1.70
2023-03-15T01:16:21.561Z,2.17
2023-03-15T01:18:51.542Z,2.00
2023-03-15T01:21:21.518Z,1.80
2023-03-15T01:23:49.512Z,2.13
2023-03-15T01:26:18.581Z,2.23
2023-03-15T01:28:46.747Z,2.40
2023-03-15T01:31:19.440Z,2.10
2023-03-15T01:33:47.737Z,2.23
2023-03-15T01:36:15.791Z,2.40
2023-03-15T01:38:45.110Z,2.20
2023-03-15T01:41:14.103Z,2.17
2023-03-15T01:43:47.193Z,2.43
2023-03-15T01:46:27.892Z,2.30
2023-03-15T01:49:02.438Z,2.23
2023-03-15T01:51:37.960Z,2.07
2023-03-15T01:54:11.743Z,2.37
2023-03-15T01:56:43.237Z,2.23
2023-03-15T01:59:16.415Z,2.43
2023-03-15T02:01:45.983Z,2.43
2023-03-15T02:04:19.418Z,2.70
2023-03-15T02:06:48.894Z,2.90
2023-03-15T02:09:19.856Z,3.00
2023-03-15T02:11:49.140Z,2.87
2023-03-15T02:14:17.372Z,2.80
2023-03-15T02:16:45.421Z,2.87
2023-03-15T02:19:29.097Z,2.73
2023-03-15T02:22:08.178Z,2.70
2023-03-15T02:24:46.264Z,2.60
2023-03-15T02:27:14.578Z,2.17
2023-03-15T02:29:43.949Z,2.27
2023-03-15T02:32:12.003Z,1.80
2023-03-15T02:34:40.043Z,1.93
2023-03-15T02:37:08.127Z,2.10
2023-03-15T02:39:36.055Z,1.87
2023-03-15T02:42:04.044Z,2.33
2023-03-15T02:44:34.360Z,2.10
2023-03-15T02:47:06.376Z,1.90
2023-03-15T02:49:42.968Z,2.07
2023-03-15T02:52:12.248Z,2.27
2023-03-15T02:54:43.369Z,2.30
2023-03-15T02:57:11.480Z,2.27
2023-03-15T02:59:39.768Z,2.40
2023-03-15T03:02:11.769Z,2.27
2023-03-15T03:04:39.965Z,2.17
2023-03-15T03:07:08.281Z,2.30
2023-03-15T03:09:36.354Z,2.10
2023-03-15T03:12:04.609Z,2.33
2023-03-15T03:14:32.600Z,2.30
2023-03-15T03:17:01.603Z,2.37
2023-03-15T03:19:30.976Z,2.40
2023-03-15T03:21:58.987Z,2.37
2023-03-15T03:24:26.896Z,2.70
2023-03-15T03:26:57.983Z,2.30
2023-03-15T03:29:26.386Z,2.23
2023-03-15T03:31:54.229Z,2.40
2023-03-15T03:34:22.242Z,2.40
2023-03-15T03:36:51.712Z,2.17
2023-03-15T03:39:19.639Z,2.13
2023-03-15T03:41:47.527Z,2.37
2023-03-15T03:44:15.390Z,2.43
2023-03-15T03:46:43.241Z,2.50
2023-03-15T03:49:12.601Z,2.93
2023-03-15T03:51:41.241Z,2.60
2023-03-15T03:54:10.588Z,2.70
2023-03-15T03:56:39.726Z,2.93
2023-03-15T03:59:07.725Z,2.70
2023-03-15T04:01:35.692Z,2.60
2023-03-15T04:04:03.740Z,2.77
2023-03-15T04:06:32.380Z,2.27
2023-03-15T04:09:00.234Z,1.90
2023-03-15T04:11:30.155Z,2.20
2023-03-15T04:13:58.023Z,1.90
2023-03-15T04:16:26.106Z,1.70
2023-03-15T04:18:57.481Z,1.50
2023-03-15T04:21:25.358Z,1.60
2023-03-15T04:23:53.920Z,1.43
2023-03-15T04:26:26.647Z,1.60
2023-03-15T04:28:57.007Z,1.63
2023-03-15T04:31:27.346Z,1.57
2023-03-15T04:33:55.828Z,1.83
2023-03-15T04:36:24.637Z,1.70
2023-03-15T04:38:52.613Z,1.70
2023-03-15T04:41:20.536Z,1.57
2023-03-15T04:43:48.504Z,1.60
2023-03-15T04:46:17.758Z,2.00
2023-03-15T04:48:45.622Z,1.80
2023-03-15T04:51:13.464Z,2.13
2023-03-15T04:53:41.416Z,2.30
2023-03-15T04:56:09.596Z,2.20
2023-03-15T04:58:37.484Z,2.20
2023-03-15T05:01:05.771Z,2.70
2023-03-15T05:03:35.108Z,2.60
2023-03-15T05:06:08.305Z,3.53
2023-03-15T05:08:37.014Z,3.90
2023-03-15T05:11:06.187Z,6.70
2023-03-15T05:13:34.078Z,5.10
2023-03-15T05:16:02.195Z,5.23
2023-03-15T05:18:30.491Z,6.20
2023-03-15T05:21:00.068Z,5.40
2023-03-15T05:23:28.200Z,6.60
2023-03-15T05:25:57.391Z,7.23
2023-03-15T05:28:26.436Z,7.27
2023-03-15T05:30:54.698Z,6.83
2023-03-15T05:33:23.024Z,7.93
2023-03-15T05:35:51.007Z,7.53
2023-03-15T05:38:21.010Z,7.93
2023-03-15T05:40:48.892Z,7.63
2023-03-15T05:43:16.888Z,7.70
2023-03-15T05:45:47.148Z,7.40
2023-03-15T05:48:15.110Z,6.90
2023-03-15T05:50:43.038Z,7.47
2023-03-15T05:53:11.218Z,6.90
2023-03-15T05:55:40.565Z,6.80
2023-03-15T05:58:08.498Z,6.60
2023-03-15T06:00:36.328Z,6.10
2023-03-15T06:03:05.044Z,6.47
2023-03-15T06:05:32.941Z,5.87
2023-03-15T06:08:00.765Z,5.53
2023-03-15T06:10:28.633Z,6.47
2023-03-15T06:12:58.173Z,5.50
2023-03-15T06:15:26.157Z,5.57
2023-03-15T06:17:54.057Z,5.00
2023-03-15T06:20:22.220Z,5.63
2023-03-15T06:22:50.125Z,5.40
2023-03-15T06:25:18.150Z,6.00
2023-03-15T06:27:46.086Z,5.10
2023-03-15T06:30:17.193Z,5.47
2023-03-15T06:32:45.302Z,4.90
2023-03-15T06:35:13.247Z,4.87
2023-03-15T06:37:41.938Z,6.17
2023-03-15T06:40:11.747Z,6.27
2023-03-15T06:42:40.619Z,5.70
2023-03-15T06:45:10.562Z,6.03
2023-03-15T06:47:40.043Z,5.27
2023-03-15T06:50:09.070Z,5.40
2023-03-15T06:52:37.040Z,5.23
2023-03-15T06:55:05.510Z,5.13
2023-03-15T06:57:33.371Z,5.00
2023-03-15T07:00:01.223Z,4.93
2023-03-15T07:02:33.979Z,4.93
2023-03-15T07:05:03.221Z,5.00
2023-03-15T07:07:31.331Z,5.67
2023-03-15T07:09:59.337Z,5.33
2023-03-15T07:12:27.272Z,5.27
2023-03-15T07:14:55.159Z,5.60
2023-03-15T07:17:23.093Z,5.47
2023-03-15T07:19:56.617Z,5.70
2023-03-15T07:22:26.791Z,5.73
2023-03-15T07:24:54.678Z,6.67
2023-03-15T07:27:22.513Z,6.67
2023-03-15T07:29:50.534Z,6.13
2023-03-15T07:32:18.817Z,5.10
2023-03-15T07:34:46.769Z,4.57
2023-03-15T07:37:14.691Z,4.47
2023-03-15T07:39:44.038Z,3.70
2023-03-15T07:42:12.229Z,3.80
2023-03-15T07:44:40.175Z,3.83
2023-03-15T07:47:08.623Z,3.17
2023-03-15T07:49:36.614Z,3.03
2023-03-15T07:52:05.591Z,2.57
2023-03-15T07:54:34.397Z,2.67
2023-03-15T07:57:03.740Z,2.60
2023-03-15T07:59:32.293Z,2.70
2023-03-15T08:02:02.411Z,2.10
2023-03-15T08:04:30.886Z,2.47
2023-03-15T08:06:58.759Z,2.40
2023-03-15T08:09:26.803Z,2.70
2023-03-15T08:11:54.768Z,2.30
2023-03-15T08:14:24.710Z,2.70
2023-03-15T08:16:52.803Z,2.40
2023-03-15T08:19:22.190Z,2.50
2023-03-15T08:21:53.985Z,2.57
2023-03-15T08:24:22.597Z,2.20
2023-03-15T08:26:51.252Z,2.77
2023-03-15T08:29:19.390Z,2.67
2023-03-15T08:31:48.696Z,2.13
2023-03-15T08:34:17.251Z,2.40
2023-03-15T08:36:47.582Z,2.33
2023-03-15T08:39:16.015Z,2.73
2023-03-15T08:41:45.575Z,2.07
2023-03-15T08:44:13.696Z,2.17
2023-03-15T08:46:41.622Z,1.70
2023-03-15T08:49:11.036Z,1.70
2023-03-15T08:51:38.953Z,1.90
2023-03-15T08:54:07.696Z,2.30
2023-03-15T08:56:36.279Z,2.03
2023-03-15T08:59:06.507Z,1.90
2023-03-15T09:01:34.822Z,1.90
2023-03-15T09:04:03.661Z,1.73
2023-03-15T09:06:33.575Z,2.10
2023-03-15T09:09:05.187Z,1.90
2023-03-15T09:11:33.063Z,1.77
2023-03-15T09:14:01.189Z,2.50
2023-03-15T09:16:29.005Z,2.00
2023-03-15T09:18:56.935Z,1.90
2023-03-15T09:21:25.153Z,2.40
2023-03-15T09:23:54.585Z,2.07
2023-03-15T09:26:22.588Z,1.97
2023-03-15T09:28:53.062Z,1.50
2023-03-15T09:31:20.963Z,1.33
2023-03-15T09:33:49.765Z,1.60
2023-03-15T09:36:17.873Z,1.23
2023-03-15T09:38:48.449Z,1.30
2023-03-15T09:41:32.234Z,1.70
2023-03-15T09:44:14.272Z,1.70
2023-03-15T09:46:50.957Z,1.63
2023-03-15T09:49:23.331Z,1.90
2023-03-15T09:51:56.125Z,1.60
2023-03-15T09:54:32.307Z,1.83
2023-03-15T09:57:05.769Z,1.40
2023-03-15T09:59:36.700Z,1.70
2023-03-15T10:02:19.118Z,1.60
2023-03-15T10:04:51.285Z,2.10
2023-03-15T10:07:19.648Z,1.43
2023-03-15T10:09:48.165Z,1.70
2023-03-15T10:12:25.618Z,1.83
2023-03-15T10:15:08.118Z,2.00
2023-03-15T10:17:47.540Z,1.90
2023-03-15T10:20:20.141Z,2.00
2023-03-15T10:22:55.896Z,1.70
2023-03-15T10:25:27.372Z,1.83
2023-03-15T10:28:00.411Z,2.00
2023-03-15T10:30:30.993Z,1.80
2023-03-15T10:33:03.175Z,5.07
2023-03-15T10:35:32.196Z,2.67
2023-03-15T10:38:00.233Z,2.43
2023-03-15T10:40:43.147Z,2.30
2023-03-15T10:43:19.464Z,2.00
2023-03-15T10:46:01.394Z,2.13
2023-03-15T10:48:31.232Z,2.60
2023-03-15T10:51:04.859Z,2.30
2023-03-15T10:53:33.644Z,2.20
2023-03-15T10:56:05.005Z,2.13
2023-03-15T10:59:05.310Z,2.50
2023-03-15T11:01:37.610Z,1.87
2023-03-15T11:04:16.492Z,1.60
2023-03-15T11:06:48.116Z,1.50
2023-03-15T11:09:18.246Z,1.30
2023-03-15T11:12:00.799Z,5.50
2023-03-15T11:14:35.198Z,5.30
2023-03-15T11:17:05.650Z,7.47
2023-03-15T11:19:38.792Z,6.50
2023-03-15T11:22:06.898Z,1.70
2023-03-15T11:24:35.726Z,7.63
2023-03-15T11:27:12.032Z,6.07
2023-03-15T11:29:45.260Z,2.37
2023-03-15T11:32:16.861Z,2.53
2023-03-15T11:34:49.762Z,1.63
2023-03-15T11:37:23.497Z,3.33
2023-03-15T11:40:08.867Z,2.70
2023-03-15T11:42:47.866Z,1.83
2023-03-15T11:45:25.190Z,1.33
2023-03-15T11:47:58.833Z,1.60
2023-03-15T11:50:26.902Z,2.10
2023-03-15T11:52:54.892Z,1.97
2023-03-15T11:55:29.246Z,1.63
2023-03-15T11:57:58.074Z,1.57
2023-03-15T12:01:02.030Z,1.90
2023-03-15T12:03:35.454Z,1.57
2023-03-15T12:06:36.889Z,2.37
2023-03-15T12:09:41.685Z,1.70
2023-03-15T12:12:36.730Z,1.90
2023-03-15T12:15:07.008Z,2.17
2023-03-15T12:17:45.477Z,1.60
2023-03-15T12:20:28.659Z,1.70
2023-03-15T12:23:20.700Z,1.80
2023-03-15T12:25:57.188Z,1.70
2023-03-15T12:28:29.227Z,2.37
2023-03-15T12:31:01.821Z,1.40
2023-03-15T12:33:31.736Z,1.40
2023-03-15T12:36:11.257Z,1.43
2023-03-15T12:38:41.890Z,1.80
2023-03-15T12:41:31.044Z,1.77
2023-03-15T12:44:19.811Z,1.43
2023-03-15T12:46:59.380Z,1.70
2023-03-15T12:49:42.907Z,1.80
2023-03-15T12:52:35.661Z,1.70
2023-03-15T12:55:13.135Z,1.70
2023-03-15T12:57:48.714Z,1.43
2023-03-15T13:00:18.760Z,1.97
2023-03-15T13:02:48.268Z,1.53
2023-03-15T13:05:23.844Z,1.63
2023-03-15T13:07:59.498Z,1.87
2023-03-15T13:11:00.354Z,1.90
2023-03-15T13:13:53.806Z,1.90
2023-03-15T13:16:29.853Z,1.73
2023-03-15T13:19:07.430Z,2.00
2023-03-15T13:21:37.229Z,2.00
2023-03-15T13:24:16.754Z,1.93
2023-03-15T13:26:55.255Z,2.13
2023-03-15T13:29:28.407Z,2.23
2023-03-15T13:32:09.511Z,2.30
2023-03-15T13:34:37.478Z,2.37
2023-03-15T13:37:05.363Z,2.23
2023-03-15T13:39:38.656Z,2.50
2023-03-15T13:42:18.088Z,2.53
2023-03-15T13:44:46.039Z,2.60
2023-03-15T13:47:21.912Z,3.30
2023-03-15T13:49:53.543Z,2.60
2023-03-15T13:52:21.503Z,2.77
2023-03-15T13:54:54.833Z,2.37
2023-03-15T13:57:24.597Z,2.50
2023-03-15T13:59:54.449Z,2.80
2023-03-15T14:02:26.210Z,2.57
2023-03-15T14:04:58.888Z,2.20
2023-03-15T14:07:30.853Z,2.73
2023-03-15T14:10:27.593Z,2.60
2023-03-15T14:12:57.471Z,2.30
2023-03-15T14:15:27.903Z,2.17
2023-03-15T14:18:02.212Z,2.47
2023-03-15T14:20:33.643Z,2.60
2023-03-15T14:23:03.161Z,2.80
2023-03-15T14:25:36.407Z,2.53
2023-03-15T14:28:05.512Z,2.90
2023-03-15T14:30:37.154Z,2.40
2023-03-15T14:33:08.417Z,2.50
2023-03-15T14:35:44.111Z,2.30
2023-03-15T14:38:19.952Z,2.73
2023-03-15T14:40:49.933Z,2.57
2023-03-15T14:43:19.137Z,2.40
2023-03-15T14:45:49.065Z,2.60
2023-03-15T14:48:26.042Z,2.60
2023-03-15T14:50:55.396Z,2.87
2023-03-15T14:53:26.280Z,2.13
2023-03-15T14:55:55.633Z,2.00
2023-03-15T14:58:26.231Z,2.20
2023-03-15T15:00:57.944Z,2.40
2023-03-15T15:03:33.542Z,2.53
2023-03-15T15:06:03.031Z,2.03
2023-03-15T15:08:32.843Z,3.13
2023-03-15T15:11:02.777Z,2.40
2023-03-15T15:13:32.646Z,2.67
2023-03-15T15:16:03.674Z,2.13
2023-03-15T15:18:33.454Z,2.60
2023-03-15T15:21:04.315Z,2.33
2023-03-15T15:23:47.468Z,3.50
2023-03-15T15:26:31.229Z,2.40
2023-03-15T15:28:59.671Z,3.80
2023-03-15T15:31:29.334Z,2.50
2023-03-15T15:33:58.014Z,2.37
2023-03-15T15:36:29.489Z,2.77
2023-03-15T15:39:01.277Z,2.80
2023-03-15T15:41:32.047Z,3.17
2023-03-15T15:44:01.970Z,2.60
2023-03-15T15:46:30.358Z,3.00
2023-03-15T15:48:58.928Z,2.43
2023-03-15T15:51:29.718Z,2.80
2023-03-15T15:53:59.071Z,2.83
2023-03-15T15:56:34.156Z,2.70
2023-03-15T15:59:04.580Z,2.43
2023-03-15T16:01:33.151Z,2.93
2023-03-15T16:04:02.073Z,2.70
2023-03-15T16:06:31.795Z,2.50
2023-03-15T16:09:00.112Z,2.10
2023-03-15T16:11:29.212Z,2.20
2023-03-15T16:13:58.743Z,2.60
2023-03-15T16:16:27.528Z,2.60
2023-03-15T16:18:55.808Z,2.80
2023-03-15T16:21:33.897Z,2.57
2023-03-15T16:24:06.601Z,2.23
2023-03-15T16:26:37.729Z,2.50
2023-03-15T16:29:16.642Z,2.57
2023-03-15T16:31:46.324Z,2.70
2023-03-15T16:34:17.380Z,2.73
2023-03-15T16:36:49.607Z,2.43
2023-03-15T16:39:18.783Z,2.50
2023-03-15T16:41:47.919Z,2.07
2023-03-15T16:44:21.482Z,2.40
2023-03-15T16:46:49.810Z,3.10
2023-03-15T16:49:17.738Z,2.37
2023-03-15T16:51:49.016Z,2.77
2023-03-15T16:54:30.628Z,2.27
2023-03-15T16:57:05.645Z,2.80
2023-03-15T16:59:35.224Z,3.10
2023-03-15T17:02:03.378Z,2.33
2023-03-15T17:04:33.324Z,2.07
2023-03-15T17:07:01.498Z,2.70
2023-03-15T17:09:29.879Z,2.57
2023-03-15T17:11:58.177Z,2.30
2023-03-15T17:14:35.422Z,2.60
2023-03-15T17:17:05.178Z,2.27
2023-03-15T17:19:37.186Z,2.17
2023-03-15T17:22:05.786Z,2.40
2023-03-15T17:24:34.598Z,2.50
2023-03-15T17:27:02.660Z,2.30
2023-03-15T17:29:31.094Z,2.37
2023-03-15T17:31:59.455Z,2.53
2023-03-15T17:34:31.757Z,2.20
2023-03-15T17:36:59.919Z,2.10
2023-03-15T17:39:28.216Z,2.33
2023-03-15T17:41:56.433Z,2.33
2023-03-15T17:44:25.269Z,2.90
2023-03-15T17:46:53.310Z,2.50
2023-03-15T17:49:30.409Z,2.43
2023-03-15T17:52:00.169Z,2.63
2023-03-15T17:54:28.283Z,2.50
2023-03-15T17:56:59.478Z,3.30
2023-03-15T17:59:28.496Z,3.10
2023-03-15T18:01:56.829Z,2.60
2023-03-15T18:04:25.075Z,2.50
2023-03-15T18:06:54.114Z,2.63
2023-03-15T18:09:27.135Z,2.60
2023-03-15T18:11:55.092Z,2.37
2023-03-15T18:14:23.246Z,2.93
2023-03-15T18:16:51.213Z,2.43
2023-03-15T18:19:19.113Z,2.83
2023-03-15T18:21:47.310Z,3.03
2023-03-15T18:24:15.462Z,2.40
2023-03-15T18:26:44.733Z,2.37
2023-03-15T18:29:12.635Z,3.00
2023-03-15T18:31:54.457Z,2.70
2023-03-15T18:34:23.227Z,3.97
2023-03-15T18:36:51.382Z,4.77
2023-03-15T18:39:19.584Z,3.17
2023-03-15T18:41:49.103Z,3.10
2023-03-15T18:44:20.430Z,2.53
2023-03-15T18:46:48.330Z,3.00
2023-03-15T18:49:18.179Z,3.00
2023-03-15T18:51:46.291Z,2.93
2023-03-15T18:54:14.190Z,3.00
2023-03-15T18:56:43.252Z,2.97
2023-03-15T18:59:12.608Z,8.53
2023-03-15T19:01:43.867Z,3.70
2023-03-15T19:04:12.583Z,3.00
2023-03-15T19:06:41.135Z,3.10
2023-03-15T19:09:12.741Z,2.70
2023-03-15T19:11:41.873Z,2.83
2023-03-15T19:14:09.962Z,2.90
2023-03-15T19:16:39.731Z,3.43
2023-03-15T19:19:07.775Z,2.77
2023-03-15T19:21:35.815Z,2.90
2023-03-15T19:24:04.528Z,3.03
2023-03-15T19:26:33.257Z,3.40
2023-03-15T19:29:06.341Z,2.93
2023-03-15T19:31:34.649Z,3.03
2023-03-15T19:34:04.602Z,3.07
2023-03-15T19:36:32.757Z,3.07
2023-03-15T19:39:00.821Z,3.60
2023-03-15T19:41:29.348Z,3.60
2023-03-15T19:43:57.379Z,2.77
2023-03-15T19:46:25.708Z,4.00
2023-03-15T19:48:53.584Z,4.10
2023-03-15T19:51:23.209Z,4.37
2023-03-15T19:53:51.392Z,3.33
2023-03-15T19:56:19.238Z,3.60
2023-03-15T19:58:47.190Z,3.63
2023-03-15T20:01:16.102Z,3.90
2023-03-15T20:03:55.395Z,4.03
2023-03-15T20:06:25.133Z,3.40
2023-03-15T20:08:54.936Z,3.63
2023-03-15T20:11:25.309Z,3.60
2023-03-15T20:13:53.796Z,4.20
2023-03-15T20:16:23.205Z,3.33
2023-03-15T20:18:52.487Z,3.97
2023-03-15T20:21:20.429Z,3.47
2023-03-15T20:23:50.009Z,3.63
2023-03-15T20:26:19.565Z,3.60
2023-03-15T20:28:48.123Z,3.50
2023-03-15T20:31:18.780Z,3.20
2023-03-15T20:33:50.076Z,3.93
2023-03-15T20:36:19.284Z,3.70
2023-03-15T20:38:47.475Z,3.67
2023-03-15T20:41:18.244Z,3.77
2023-03-15T20:43:47.620Z,3.97
2023-03-15T20:46:16.794Z,3.80
2023-03-15T20:48:45.016Z,3.90
2023-03-15T20:51:12.983Z,3.73
2023-03-15T20:53:40.808Z,3.80
2023-03-15T20:56:09.566Z,4.20
2023-03-15T20:58:38.964Z,4.10
2023-03-15T21:01:09.430Z,3.90
2023-03-15T21:03:38.101Z,4.40
2023-03-15T21:06:07.248Z,4.40
2023-03-15T21:08:35.850Z,4.27
2023-03-15T21:11:05.884Z,3.93
2023-03-15T21:13:35.582Z,3.70
2023-03-15T21:16:05.664Z,3.40
2023-03-15T21:18:38.553Z,4.00
2023-03-15T21:21:08.306Z,3.97
2023-03-15T21:23:36.877Z,3.40
2023-03-15T21:26:08.004Z,4.00
2023-03-15T21:28:38.212Z,3.53
2023-03-15T21:31:08.495Z,3.70
2023-03-15T21:33:36.825Z,3.80
2023-03-15T21:36:05.487Z,3.50
2023-03-15T21:38:35.031Z,3.70
2023-03-15T21:41:09.063Z,4.00
2023-03-15T21:43:37.839Z,3.73
2023-03-15T21:46:08.904Z,3.80
2023-03-15T21:48:38.229Z,3.63
2023-03-15T21:51:07.528Z,3.00
2023-03-15T21:53:36.264Z,3.63
2023-03-15T21:56:05.232Z,3.40
2023-03-15T21:58:34.102Z,3.80
2023-03-15T22:01:08.190Z,2.83
2023-03-15T22:03:39.356Z,3.27
2023-03-15T22:06:08.375Z,2.97
2023-03-15T22:08:36.425Z,3.40
2023-03-15T22:11:04.648Z,3.13
2023-03-15T22:13:32.885Z,3.23
2023-03-15T22:16:01.589Z,2.93
2023-03-15T22:18:30.040Z,3.00
2023-03-15T22:20:59.628Z,3.60
2023-03-15T22:23:28.268Z,3.27
2023-03-15T22:25:57.215Z,3.00
2023-03-15T22:28:26.317Z,3.17
2023-03-15T22:30:54.833Z,3.30
2023-03-15T22:33:23.272Z,3.23
2023-03-15T22:35:56.717Z,3.67
2023-03-15T22:38:27.182Z,3.57
2023-03-15T22:41:03.045Z,3.50
2023-03-15T22:43:31.012Z,3.43
2023-03-15T22:45:59.474Z,3.87
2023-03-15T22:48:27.496Z,3.47
2023-03-15T22:51:00.032Z,3.40
2023-03-15T22:53:29.899Z,3.97
2023-03-15T22:55:58.172Z,3.87
2023-03-15T22:58:27.009Z,3.67
2023-03-15T23:00:55.502Z,3.30
2023-03-15T23:03:24.878Z,3.30
2023-03-15T23:05:52.808Z,3.60
2023-03-15T23:08:20.866Z,3.60
2023-03-15T23:10:50.348Z,3.80
2023-03-15T23:13:18.310Z,3.20
2023-03-15T23:15:46.414Z,3.90
2023-03-15T23:18:15.097Z,4.13
2023-03-15T23:20:43.357Z,3.37
2023-03-15T23:23:11.227Z,4.27
2023-03-15T23:25:39.960Z,4.23
2023-03-15T23:28:09.371Z,4.43
2023-03-15T23:30:38.997Z,4.03
2023-03-15T23:33:08.410Z,4.37
2023-03-15T23:35:37.118Z,3.80
2023-03-15T23:38:05.258Z,4.77
2023-03-15T23:40:33.499Z,4.83
2023-03-15T23:43:01.363Z,4.50
2023-03-15T23:45:31.074Z,5.10
2023-03-15T23:47:59.019Z,4.47
2023-03-15T23:50:27.636Z,5.30
2023-03-15T23:52:57.190Z,4.63
2023-03-15T23:55:25.707Z,4.87
2023-03-15T23:57:53.662Z,4.90
